Time,TemperatureF,DewpointF,PressureIn,WindDirection,WindDirectionDegrees,WindSpeedMPH,WindSpeedGustMPH,Humidity,HourlyPrecipIn,Conditions,Clouds,dailyrainin,SolarRadiationWatts/m^2,SoftwareType,DateUTC
2013-09-04 00:02:00,67.0,53.0,-100.00,SSW,212,2.0,8.0,61,0.00,,,0.00,1.000000,,2013-09-04 07:02:00,
2013-09-04 00:42:00,67.0,53.0,-100.00,WSW,254,7.0,10.0,60,0.00,,,0.00,1.000000,,2013-09-04 07:42:00,
2013-09-04 00:52:00,67.0,53.0,-100.00,WSW,254,7.0,10.0,60,0.00,,,0.00,1.000000,,2013-09-04 07:52:00,
2013-09-04 01:02:00,67.0,53.0,-100.00,WSW,254,7.0,10.0,60,0.00,,,0.00,1.000000,,2013-09-04 08:02:00,
2013-09-04 01:43:00,64.0,52.0,-100.00,WSW,249,2.0,7.0,64,0.00,,,0.00,1.000000,,2013-09-04 08:43:00,
2013-09-04 01:52:00,64.0,52.0,-100.00,WSW,249,2.0,7.0,64,0.00,,,0.00,1.000000,,2013-09-04 08:52:00,
2013-09-04 02:01:00,64.0,52.0,-100.00,WSW,249,2.0,7.0,64,0.00,,,0.00,1.000000,,2013-09-04 09:01:00,
2013-09-04 02:43:00,62.0,51.0,-100.00,WSW,245,3.0,6.0,68,0.00,,,0.00,1.000000,,2013-09-04 09:43:00,
2013-09-04 02:53:00,62.0,51.0,-100.00,WSW,245,3.0,6.0,68,0.00,,,0.00,1.000000,,2013-09-04 09:53:00,
2013-09-04 03:03:00,62.0,51.0,-100.00,WSW,245,3.0,6.0,68,0.00,,,0.00,1.000000,,2013-09-04 10:03:00,
2013-09-04 03:42:00,61.0,52.0,-100.00,WSW,256,3.0,5.0,72,0.00,,,0.00,1.000000,,2013-09-04 10:42:00,
2013-09-04 03:52:00,61.0,52.0,-100.00,WSW,256,3.0,5.0,72,0.00,,,0.00,1.000000,,2013-09-04 10:52:00,
2013-09-04 04:02:00,61.0,52.0,-100.00,WSW,256,3.0,5.0,72,0.00,,,0.00,1.000000,,2013-09-04 11:02:00,
2013-09-04 04:42:00,59.0,51.0,-100.00,SW,224,3.0,6.0,74,0.00,,,0.00,1.000000,,2013-09-04 11:42:00,
2013-09-04 04:52:00,59.0,51.0,-100.00,SW,224,3.0,6.0,74,0.00,,,0.00,1.000000,,2013-09-04 11:52:00,
2013-09-04 05:01:00,59.0,51.0,-100.00,SW,224,3.0,6.0,74,0.00,,,0.00,1.000000,,2013-09-04 12:01:00,
2013-09-04 05:42:00,59.0,51.0,-100.00,SW,220,3.0,6.0,74,0.00,,,0.00,1.000000,,2013-09-04 12:42:00,
2013-09-04 05:52:00,59.0,51.0,-100.00,SW,220,3.0,6.0,74,0.00,,,0.00,1.000000,,2013-09-04 12:52:00,
2013-09-04 06:01:00,59.0,51.0,-100.00,SW,220,3.0,6.0,74,0.00,,,0.00,1.000000,,2013-09-04 13:01:00,
2013-09-04 06:42:00,57.0,49.0,-100.00,WSW,249,5.0,7.0,75,0.00,,,0.00,1.000000,,2013-09-04 13:42:00,
2013-09-04 06:52:00,57.0,49.0,-100.00,WSW,249,5.0,7.0,75,0.00,,,0.00,1.000000,,2013-09-04 13:52:00,
2013-09-04 07:01:00,57.0,49.0,-100.00,WSW,249,5.0,7.0,75,0.00,,,0.00,1.000000,,2013-09-04 14:01:00,
2013-09-04 07:42:00,57.0,50.0,-100.00,SSW,199,3.0,8.0,78,0.00,,,-99.99,13.000000,,2013-09-04 14:42:00,
2013-09-04 07:52:00,57.0,50.0,-100.00,SSW,199,3.0,8.0,78,0.00,,,-99.99,13.000000,,2013-09-04 14:52:00,
2013-09-04 08:02:00,57.0,50.0,-100.00,SSW,199,3.0,8.0,78,0.00,,,-99.99,13.000000,,2013-09-04 15:02:00,
2013-09-04 08:43:00,62.0,52.0,-100.00,SSW,211,6.0,7.0,71,0.00,,,0.00,153.000000,,2013-09-04 15:43:00,
2013-09-04 08:53:00,62.0,52.0,-100.00,SSW,211,6.0,7.0,71,0.00,,,0.00,153.000000,,2013-09-04 15:53:00,
2013-09-04 09:03:00,62.0,52.0,-100.00,SSW,211,6.0,7.0,71,0.00,,,0.00,153.000000,,2013-09-04 16:03:00,
2013-09-04 09:43:00,67.0,54.0,-100.00,South,189,3.0,6.0,62,0.00,,,0.00,325.000000,,2013-09-04 16:43:00,
2013-09-04 09:53:00,67.0,54.0,-100.00,South,189,3.0,6.0,62,0.00,,,0.00,325.000000,,2013-09-04 16:53:00,
2013-09-04 10:03:00,67.0,54.0,-100.00,South,189,3.0,6.0,62,0.00,,,0.00,325.000000,,2013-09-04 17:03:00,
2013-09-04 10:42:00,72.0,53.0,-100.00,SSW,203,3.0,6.0,52,0.00,,,0.00,487.000000,,2013-09-04 17:42:00,
2013-09-04 10:52:00,72.0,53.0,-100.00,SSW,203,3.0,6.0,52,0.00,,,0.00,487.000000,,2013-09-04 17:52:00,
2013-09-04 11:02:00,72.0,53.0,-100.00,SSW,203,3.0,6.0,52,0.00,,,0.00,487.000000,,2013-09-04 18:02:00,
2013-09-04 11:42:00,76.0,54.0,-100.00,East,93,4.0,8.0,46,0.00,,,0.00,620.000000,,2013-09-04 18:42:00,
2013-09-04 11:52:00,76.0,54.0,-100.00,East,93,4.0,8.0,46,0.00,,,0.00,620.000000,,2013-09-04 18:52:00,
2013-09-04 12:02:00,76.0,54.0,-100.00,East,93,4.0,8.0,46,0.00,,,0.00,620.000000,,2013-09-04 19:02:00,
2013-09-04 12:42:00,80.0,55.0,-100.00,NE,45,4.0,9.0,42,0.00,,,0.00,716.000000,,2013-09-04 19:42:00,
2013-09-04 12:52:00,80.0,55.0,-100.00,NE,45,4.0,9.0,42,0.00,,,0.00,716.000000,,2013-09-04 19:52:00,
2013-09-04 13:02:00,80.0,55.0,-100.00,NE,45,4.0,9.0,42,0.00,,,0.00,716.000000,,2013-09-04 20:02:00,
2013-09-04 13:43:00,84.0,53.0,-100.00,East,80,3.0,9.0,34,0.00,,,0.00,762.000000,,2013-09-04 20:43:00,
2013-09-04 13:53:00,84.0,53.0,-100.00,East,80,3.0,9.0,34,0.00,,,0.00,762.000000,,2013-09-04 20:53:00,
2013-09-04 14:01:00,84.0,53.0,-100.00,East,80,3.0,9.0,34,0.00,,,0.00,762.000000,,2013-09-04 21:01:00,
2013-09-04 14:44:00,88.0,50.0,-100.00,North,10,5.0,9.0,27,0.00,,,0.00,771.000000,,2013-09-04 21:44:00,
2013-09-04 14:54:00,88.0,50.0,-100.00,North,10,5.0,9.0,27,0.00,,,0.00,771.000000,,2013-09-04 21:54:00,
2013-09-04 15:04:00,88.0,50.0,-100.00,North,10,5.0,9.0,27,0.00,,,0.00,771.000000,,2013-09-04 22:04:00,
2013-09-04 15:43:00,87.0,47.0,-100.00,NNW,345,6.0,13.0,25,0.00,,,0.00,600.000000,,2013-09-04 22:43:00,
2013-09-04 15:54:00,87.0,47.0,-100.00,NNW,345,6.0,13.0,25,0.00,,,0.00,600.000000,,2013-09-04 22:54:00,
2013-09-04 16:03:00,87.0,47.0,-100.00,NNW,345,6.0,13.0,25,0.00,,,0.00,600.000000,,2013-09-04 23:03:00,
2013-09-04 16:42:00,89.0,46.0,-100.00,NNW,339,11.0,16.0,23,0.00,,,0.00,635.000000,,2013-09-04 23:42:00,
2013-09-04 16:52:00,89.0,46.0,-100.00,NNW,339,11.0,16.0,23,0.00,,,0.00,635.000000,,2013-09-04 23:52:00,
2013-09-04 17:01:00,89.0,46.0,-100.00,NNW,339,11.0,16.0,23,0.00,,,0.00,635.000000,,2013-09-05 00:01:00,
2013-09-04 17:43:00,88.0,48.0,-100.00,NNW,341,11.0,19.0,25,0.00,,,0.00,458.000000,,2013-09-05 00:43:00,
2013-09-04 17:52:00,88.0,48.0,-100.00,NNW,341,11.0,19.0,25,0.00,,,0.00,458.000000,,2013-09-05 00:52:00,
2013-09-04 18:01:00,88.0,48.0,-100.00,NNW,341,11.0,19.0,25,0.00,,,0.00,458.000000,,2013-09-05 01:01:00,
2013-09-04 18:42:00,79.0,50.0,-100.00,NNW,348,14.0,22.0,37,0.00,,,-99.99,262.000000,,2013-09-05 01:42:00,
2013-09-04 18:52:00,79.0,50.0,-100.00,NNW,348,14.0,22.0,37,0.00,,,-99.99,262.000000,,2013-09-05 01:52:00,
2013-09-04 19:02:00,79.0,50.0,-100.00,NNW,348,14.0,22.0,37,0.00,,,-99.99,262.000000,,2013-09-05 02:02:00,
2013-09-04 19:52:00,73.0,53.0,-100.00,North,354,12.0,22.0,50,0.00,,,0.00,59.000000,,2013-09-05 02:52:00,
2013-09-04 20:02:00,73.0,53.0,-100.00,North,354,12.0,22.0,50,0.00,,,0.00,59.000000,,2013-09-05 03:02:00,
2013-09-04 20:45:00,70.0,54.0,-100.00,North,350,11.0,21.0,56,0.00,,,0.00,4.000000,,2013-09-05 03:45:00,
2013-09-04 20:54:00,70.0,54.0,-100.00,North,350,11.0,21.0,56,0.00,,,0.00,4.000000,,2013-09-05 03:54:00,
2013-09-04 21:04:00,70.0,54.0,-100.00,North,350,11.0,21.0,56,0.00,,,0.00,4.000000,,2013-09-05 04:04:00,
2013-09-04 21:44:00,67.0,52.0,-100.00,North,350,14.0,24.0,59,0.00,,,0.00,1.000000,,2013-09-05 04:44:00,
2013-09-04 21:53:00,67.0,52.0,-100.00,North,350,14.0,24.0,59,0.00,,,0.00,1.000000,,2013-09-05 04:53:00,
2013-09-04 22:03:00,67.0,52.0,-100.00,North,350,14.0,24.0,59,0.00,,,0.00,1.000000,,2013-09-05 05:03:00,
2013-09-04 22:43:00,67.0,53.0,-100.00,North,1,10.0,23.0,60,0.00,,,0.00,1.000000,,2013-09-05 05:43:00,
2013-09-04 22:52:00,67.0,53.0,-100.00,North,1,10.0,23.0,60,0.00,,,0.00,1.000000,,2013-09-05 05:52:00,
2013-09-04 23:01:00,67.0,53.0,-100.00,North,1,10.0,23.0,60,0.00,,,0.00,1.000000,,2013-09-05 06:01:00,
2013-09-04 23:42:00,67.0,52.0,-100.00,North,359,7.0,16.0,58,0.00,,,0.00,1.000000,,2013-09-05 06:42:00,
2013-09-04 23:52:00,67.0,52.0,-100.00,North,359,7.0,16.0,58,0.00,,,0.00,1.000000,,2013-09-05 06:52:00,